Time;durP1;ratioP1;P1;durP2;ratioP2;P2;SDS_P1;SDS_P2;PMS_P1;PMS_P2;Temp;Humidity;BMP_temperature;BMP_pressure;BME280_temperature;BME280_humidity;BME280_pressure;Samples;Min_cycle;Max_cycle;Signal;HPM_P1;HPM_P2
2022/02/18 00:00:49;;;;;;;18.98;3.20;;;;;;;7.05;83.41;101163.19;5004795;28;20041;-81
2022/02/18 00:03:15;;;;;;;9.77;2.45;;;;;;;7.05;83.28;101168.41;5037231;28;20359;-81
2022/02/18 00:05:41;;;;;;;9.70;1.75;;;;;;;7.06;83.16;101161.47;5019181;28;20034;-82
2022/02/18 00:08:08;;;;;;;7.32;1.52;;;;;;;7.06;83.37;101154.50;5036992;28;20052;-82
2022/02/18 00:10:33;;;;;;;6.65;1.60;;;;;;;7.06;83.26;101151.03;5018702;28;20045;-82
2022/02/18 00:12:59;;;;;;;13.10;2.50;;;;;;;7.07;83.20;101145.78;5036714;28;20046;-82
2022/02/18 00:15:25;;;;;;;6.15;1.67;;;;;;;7.07;83.33;101145.78;5037074;28;20147;-82
2022/02/18 00:17:50;;;;;;;7.50;2.03;;;;;;;7.07;83.40;101137.97;5018425;28;20045;-82
2022/02/18 00:20:16;;;;;;;14.45;2.97;;;;;;;7.08;83.30;101137.09;5037930;28;20368;-82
2022/02/18 00:22:42;;;;;;;13.43;2.80;;;;;;;7.10;83.23;101129.25;5037750;28;20076;-82
2022/02/18 00:25:08;;;;;;;7.65;1.98;;;;;;;7.13;83.28;101123.97;5038067;28;20037;-82
2022/02/18 00:27:35;;;;;;;8.60;2.03;;;;;;;7.12;83.16;101119.66;5039276;28;20037;-82
2022/02/18 00:30:02;;;;;;;17.58;3.08;;;;;;;7.11;83.17;101116.19;5014505;28;20076;-82
2022/02/18 00:32:28;;;;;;;15.45;2.50;;;;;;;7.14;83.23;101124.81;5038889;28;20040;-82
2022/02/18 00:34:53;;;;;;;7.85;1.92;;;;;;;7.14;83.04;101107.44;5039501;28;20053;-82
2022/02/18 00:37:20;;;;;;;10.55;2.08;;;;;;;7.11;83.21;101105.78;5027990;28;20376;-82
2022/02/18 00:39:45;;;;;;;5.53;1.63;;;;;;;7.14;83.34;101109.19;5022017;28;20116;-81
2022/02/18 00:42:11;;;;;;;16.88;3.03;;;;;;;7.13;83.23;101105.75;5020831;28;20168;-82
2022/02/18 00:44:37;;;;;;;10.05;1.98;;;;;;;7.14;83.23;101102.22;5039176;28;20064;-82
2022/02/18 00:47:02;;;;;;;11.60;2.17;;;;;;;7.14;83.34;101104.00;5038344;28;20044;-82
2022/02/18 00:49:28;;;;;;;16.42;2.53;;;;;;;7.13;83.58;101107.47;5021235;28;20034;-82
2022/02/18 00:51:53;;;;;;;17.48;2.88;;;;;;;7.13;83.65;101117.88;5001899;28;20034;-82
2022/02/18 00:54:19;;;;;;;14.85;3.05;;;;;;;7.11;83.33;101108.38;5020980;28;20037;-82
2022/02/18 00:56:44;;;;;;;15.55;2.65;;;;;;;7.13;83.76;101105.75;5039302;28;20110;-82
2022/02/18 00:59:10;;;;;;;14.00;2.60;;;;;;;7.14;83.41;101109.19;5038882;28;20376;-80
2022/02/18 01:01:36;;;;;;;13.85;2.35;;;;;;;7.14;83.51;101104.84;5015999;28;20345;-82
2022/02/18 01:04:02;;;;;;;10.65;2.60;;;;;;;7.16;83.76;101102.22;5033930;28;20032;-82
2022/02/18 01:06:28;;;;;;;15.50;2.63;;;;;;;7.16;83.90;101092.63;5031170;28;20052;-82
2022/02/18 01:08:54;;;;;;;16.13;2.88;;;;;;;7.19;84.06;101091.72;5038431;28;20131;-82
2022/02/18 01:11:20;;;;;;;14.85;2.75;;;;;;;7.19;83.79;101089.97;5004536;28;20049;-82
2022/02/18 01:13:45;;;;;;;17.52;2.97;;;;;;;7.22;84.08;101086.44;5021096;28;20266;-82
2022/02/18 01:16:11;;;;;;;9.65;2.38;;;;;;;7.23;83.99;101082.94;5037824;28;20037;-82
2022/02/18 01:18:36;;;;;;;16.98;2.85;;;;;;;7.21;84.63;101080.38;5038310;28;20082;-82
2022/02/18 01:21:02;;;;;;;14.43;2.67;;;;;;;7.23;84.51;101077.72;5020737;28;20039;-82
2022/02/18 01:23:28;;;;;;;21.00;3.17;;;;;;;7.23;84.54;101077.72;5038179;28;20216;-82
2022/02/18 01:25:53;;;;;;;23.17;3.05;;;;;;;7.24;84.39;101069.00;5037975;28;20087;-82
2022/02/18 01:28:19;;;;;;;19.58;3.67;;;;;;;7.23;84.54;101062.94;5038137;28;20276;-82
2022/02/18 01:30:44;;;;;;;20.75;3.63;;;;;;;7.25;84.31;101068.13;5038007;28;20095;-82
2022/02/18 01:33:10;;;;;;;26.83;3.10;;;;;;;7.25;84.51;101060.31;5020221;28;20458;-81
2022/02/18 01:35:35;;;;;;;16.30;2.25;;;;;;;7.27;84.39;101055.91;5038224;28;20037;-81
2022/02/18 01:38:02;;;;;;;18.48;3.17;;;;;;;7.25;84.27;101053.34;5038039;28;20037;-82
2022/02/18 01:40:29;;;;;;;13.98;2.55;;;;;;;7.27;84.29;101048.94;5022730;28;20094;-82
2022/02/18 01:42:54;;;;;;;16.75;2.75;;;;;;;7.26;84.39;101042.06;5057525;28;20025;-82
2022/02/18 01:45:19;;;;;;;12.15;2.42;;;;;;;7.28;84.44;101037.66;5048941;28;20108;-82
2022/02/18 01:47:45;;;;;;;17.65;4.05;;;;;;;7.29;84.36;101033.28;5037615;28;20037;-82
2022/02/18 01:50:10;;;;;;;19.25;3.55;;;;;;;7.29;84.42;101028.09;5019753;28;20037;-82
2022/02/18 01:52:41;;;;;;;29.58;3.83;;;;;;;7.29;84.63;101007.25;5038012;28;20347;-82
2022/02/18 01:55:10;;;;;;;18.77;3.30;;;;;;;7.28;84.52;101006.38;5038080;28;20033;-82
2022/02/18 01:57:43;;;;;;;12.30;2.85;;;;;;;7.30;84.53;100996.78;5047519;28;20032;-82
2022/02/18 02:00:09;;;;;;;13.23;2.22;;;;;;;7.31;84.32;100984.59;5053853;28;20033;-82
2022/02/18 02:02:35;;;;;;;8.52;2.42;;;;;;;7.34;84.52;100991.50;5037546;28;20225;-82
2022/02/18 02:05:01;;;;;;;13.50;2.30;;;;;;;7.34;84.36;100974.13;5037797;28;20033;-82
2022/02/18 02:07:27;;;;;;;15.80;2.50;;;;;;;7.35;84.51;100959.34;5037931;28;20109;-82
2022/02/18 02:09:52;;;;;;;12.45;2.15;;;;;;;7.37;84.33;100962.75;5036090;28;20392;-82
2022/02/18 02:12:18;;;;;;;20.42;3.33;;;;;;;7.35;84.76;100955.00;5037656;28;20037;-82
2022/02/18 02:14:43;;;;;;;12.77;2.65;;;;;;;7.35;84.58;100952.41;5020605;28;20052;-82
2022/02/18 02:17:10;;;;;;;12.82;2.20;;;;;;;7.37;84.68;100939.31;5019901;28;20104;-82
2022/02/18 02:19:35;;;;;;;10.32;2.03;;;;;;;7.37;84.82;100937.56;5035974;28;20200;-82
2022/02/18 02:22:01;;;;;;;14.73;2.63;;;;;;;7.36;84.88;100922.81;5003263;28;20060;-82
2022/02/18 02:24:26;;;;;;;11.43;2.28;;;;;;;7.37;84.94;100924.53;5020184;28;20025;-82
2022/02/18 02:26:52;;;;;;;9.32;1.77;;;;;;;7.39;84.70;100914.09;5037473;28;20037;-82
2022/02/18 02:29:18;;;;;;;6.18;1.40;;;;;;;7.40;84.73;100906.19;5020033;28;20033;-82
2022/02/18 02:31:43;;;;;;;5.28;1.70;;;;;;;7.43;84.78;100902.69;5019598;28;20037;-82
2022/02/18 02:34:09;;;;;;;8.07;1.92;;;;;;;7.43;84.76;100895.72;5037171;28;20056;-82
2022/02/18 02:36:35;;;;;;;10.02;3.38;;;;;;;7.43;84.92;100889.66;5019885;28;20036;-82
2022/02/18 02:39:01;;;;;;;7.93;1.75;;;;;;;7.43;85.06;100874.88;5036302;28;20049;-82
2022/02/18 02:41:26;;;;;;;8.07;2.00;;;;;;;7.44;84.85;100871.38;5003048;28;20056;-82
2022/02/18 02:43:52;;;;;;;12.63;2.25;;;;;;;7.46;84.88;100877.41;5003118;28;20056;-82
2022/02/18 02:46:17;;;;;;;9.63;2.47;;;;;;;7.46;85.00;100872.19;5019699;28;20430;-82
2022/02/18 02:48:43;;;;;;;6.57;2.25;;;;;;;7.46;85.14;100861.75;5019630;28;20252;-82
2022/02/18 02:51:10;;;;;;;7.50;2.00;;;;;;;7.48;84.96;100857.34;5036962;28;20055;-82
2022/02/18 02:53:39;;;;;;;12.15;2.35;;;;;;;7.48;85.02;100852.16;5037387;28;20045;-82
2022/02/18 02:56:05;;;;;;;11.20;2.25;;;;;;;7.50;85.09;100844.28;5036813;28;20033;-82
2022/02/18 02:58:30;;;;;;;7.10;1.60;;;;;;;7.50;85.13;100836.47;5037206;28;20141;-82
2022/02/18 03:00:56;;;;;;;15.27;2.50;;;;;;;7.48;85.15;100826.09;5037398;28;20033;-82
2022/02/18 03:03:21;;;;;;;8.70;2.00;;;;;;;7.48;85.16;100813.06;5040678;28;20041;-82
2022/02/18 03:05:47;;;;;;;5.10;1.83;;;;;;;7.50;85.20;100813.88;5023261;28;20037;-82
2022/02/18 03:08:12;;;;;;;9.38;2.58;;;;;;;7.49;85.36;100806.97;5023580;28;20113;-83
2022/02/18 03:10:38;;;;;;;11.45;2.15;;;;;;;7.50;85.48;100789.56;5040372;28;20244;-84
2022/02/18 03:13:03;;;;;;;9.93;1.85;;;;;;;7.51;85.46;100788.66;5040345;28;20037;-84
2022/02/18 03:15:29;;;;;;;17.42;3.35;;;;;;;7.53;85.53;100778.19;5040977;28;20037;-84
2022/02/18 03:17:55;;;;;;;13.48;2.60;;;;;;;7.52;85.51;100774.75;5022844;28;20052;-84
2022/02/18 03:20:21;;;;;;;12.15;2.70;;;;;;;7.50;85.62;100769.56;5023415;28;20024;-84
2022/02/18 03:22:47;;;;;;;8.32;2.20;;;;;;;7.52;85.81;100763.47;5040623;28;20113;-84
2022/02/18 03:25:13;;;;;;;9.77;2.28;;;;;;;7.51;85.97;100749.56;5040859;28;20071;-84
2022/02/18 03:27:40;;;;;;;13.98;3.10;;;;;;;7.53;85.75;100747.78;5040387;28;20045;-84
2022/02/18 03:30:07;;;;;;;12.35;3.28;;;;;;;7.52;85.69;100724.38;5047273;28;20083;-83
2022/02/18 03:32:33;;;;;;;7.85;2.17;;;;;;;7.54;85.79;100717.38;5043036;28;20320;-83
2022/02/18 03:34:59;;;;;;;10.00;1.88;;;;;;;7.55;85.83;100700.81;5012499;28;20034;-83
2022/02/18 03:37:24;;;;;;;6.20;2.30;;;;;;;7.54;85.75;100692.16;5022912;28;20267;-83
2022/02/18 03:39:50;;;;;;;9.30;1.90;;;;;;;7.55;85.90;100685.16;5040387;28;20038;-83
2022/02/18 03:42:15;;;;;;;12.27;2.55;;;;;;;7.56;85.75;100669.50;5040633;28;20112;-83
2022/02/18 03:44:40;;;;;;;7.20;2.10;;;;;;;7.56;85.90;100648.66;5006646;28;20060;-83
2022/02/18 03:47:06;;;;;;;19.23;3.22;;;;;;;7.56;86.18;100637.38;5054275;28;20029;-83
2022/02/18 03:49:32;;;;;;;17.73;2.83;;;;;;;7.56;86.03;100629.56;5042728;28;20048;-83
2022/02/18 03:51:57;;;;;;;10.32;2.45;;;;;;;7.57;86.15;100607.81;5059715;28;20048;-83
2022/02/18 03:54:25;;;;;;;11.93;2.22;;;;;;;7.56;86.01;100612.16;5060323;28;20044;-84
2022/02/18 03:56:51;;;;;;;9.67;2.33;;;;;;;7.56;86.27;100606.94;5060059;28;20041;-84
2022/02/18 03:59:16;;;;;;;10.10;2.80;;;;;;;7.56;86.10;100599.13;5042784;28;20358;-84
2022/02/18 04:01:42;;;;;;;13.90;2.50;;;;;;;7.56;86.07;100580.03;5060373;28;20399;-84
2022/02/18 04:04:07;;;;;;;10.45;2.47;;;;;;;7.57;86.08;100569.56;5060438;28;20332;-84
2022/02/18 04:06:32;;;;;;;9.13;1.73;;;;;;;7.58;85.96;100575.63;5042034;28;20044;-84
2022/02/18 04:08:58;;;;;;;10.07;2.25;;;;;;;7.58;85.99;100578.25;5059788;28;20049;-84
2022/02/18 04:11:24;;;;;;;13.32;2.65;;;;;;;7.58;85.97;100586.06;5058301;28;20072;-84
2022/02/18 04:13:49;;;;;;;12.05;2.22;;;;;;;7.57;86.17;100593.03;5058557;28;20032;-84
2022/02/18 04:16:14;;;;;;;11.73;2.67;;;;;;;7.58;86.01;100588.66;5040929;28;20037;-84
2022/02/18 04:18:40;;;;;;;5.82;1.88;;;;;;;7.59;86.21;100583.41;5040575;28;20044;-84
2022/02/18 04:21:05;;;;;;;10.85;2.85;;;;;;;7.59;85.98;100570.38;5040828;28;20037;-84
2022/02/18 04:23:31;;;;;;;12.55;2.83;;;;;;;7.58;86.09;100571.25;5028472;28;20410;-84
2022/02/18 04:25:56;;;;;;;12.73;2.70;;;;;;;7.59;86.09;100566.94;5038595;28;20052;-84
2022/02/18 04:28:22;;;;;;;16.73;2.85;;;;;;;7.59;86.09;100556.50;5038680;28;20257;-84
2022/02/18 04:30:48;;;;;;;14.50;2.80;;;;;;;7.59;86.12;100552.13;5038297;28;20095;-84
2022/02/18 04:33:15;;;;;;;9.05;2.13;;;;;;;7.60;86.05;100547.75;5020560;28;20048;-84
2022/02/18 04:35:44;;;;;;;12.57;2.65;;;;;;;7.60;86.14;100532.97;5020551;28;20325;-84
2022/02/18 04:38:10;;;;;;;12.93;2.63;;;;;;;7.60;86.31;100514.72;5050733;28;20039;-84
2022/02/18 04:40:36;;;;;;;9.15;2.08;;;;;;;7.60;86.06;100506.06;5058536;28;20036;-84
2022/02/18 04:43:02;;;;;;;11.93;2.22;;;;;;;7.58;86.21;100497.44;5038633;28;20037;-84
2022/02/18 04:45:27;;;;;;;16.15;2.85;;;;;;;7.59;86.23;100494.78;5020710;28;20271;-84
2022/02/18 04:47:53;;;;;;;18.45;3.28;;;;;;;7.59;86.29;100484.38;5038181;28;20303;-83
2022/02/18 04:50:18;;;;;;;10.13;2.72;;;;;;;7.58;86.46;100461.81;5038127;28;20227;-83
2022/02/18 04:52:44;;;;;;;12.45;2.45;;;;;;;7.59;86.40;100444.44;5020435;28;20037;-83
2022/02/18 04:55:09;;;;;;;14.02;2.78;;;;;;;7.59;86.42;100449.66;5038995;28;20039;-83
2022/02/18 04:57:35;;;;;;;9.35;2.45;;;;;;;7.59;86.43;100431.41;5040361;28;20040;-84
2022/02/18 05:00:03;;;;;;;11.20;2.83;;;;;;;7.59;86.34;100424.44;5057866;28;20049;-84
2022/02/18 05:02:28;;;;;;;9.93;2.45;;;;;;;7.59;86.26;100419.22;5057867;28;20033;-84
2022/02/18 05:04:53;;;;;;;16.58;3.50;;;;;;;7.59;86.53;100419.22;5040169;28;20274;-84
2022/02/18 05:07:19;;;;;;;12.85;3.08;;;;;;;7.59;86.36;100418.38;5039909;28;20270;-84
2022/02/18 05:09:45;;;;;;;18.83;3.40;;;;;;;7.59;86.44;100413.16;4996885;28;1259707;-84
2022/02/18 05:12:11;;;;;;;11.63;2.50;;;;;;;7.59;86.43;100410.56;5040597;28;20627;-84
2022/02/18 05:14:36;;;;;;;5.57;1.83;;;;;;;7.59;86.33;100395.75;5040863;28;20082;-84
2022/02/18 05:17:02;;;;;;;10.85;2.28;;;;;;;7.60;86.50;100383.56;5058819;28;20055;-84
2022/02/18 05:19:28;;;;;;;8.13;2.30;;;;;;;7.60;86.45;100373.16;5058596;28;20243;-84
2022/02/18 05:21:54;;;;;;;13.95;2.85;;;;;;;7.59;86.32;100353.22;5058241;28;20047;-84
2022/02/18 05:24:19;;;;;;;14.55;2.47;;;;;;;7.60;86.38;100362.72;5057640;28;20481;-84
2022/02/18 05:26:45;;;;;;;20.10;3.83;;;;;;;7.59;86.20;100361.03;5058917;28;20047;-84
2022/02/18 05:29:10;;;;;;;22.55;3.28;;;;;;;7.57;86.36;100348.06;5041099;28;20037;-84
2022/02/18 05:31:36;;;;;;;13.68;2.72;;;;;;;7.57;86.47;100322.00;5040237;28;20337;-84
2022/02/18 05:34:01;;;;;;;9.02;2.42;;;;;;;7.55;86.45;100297.75;5038420;28;20039;-84
2022/02/18 05:36:27;;;;;;;13.80;2.40;;;;;;;7.56;86.44;100293.38;5038293;28;20122;-84
2022/02/18 05:38:53;;;;;;;12.82;3.03;;;;;;;7.54;86.52;100284.78;5038130;28;20233;-84
2022/02/18 05:41:18;;;;;;;13.35;2.38;;;;;;;7.55;86.30;100279.53;5020602;28;20364;-84
2022/02/18 05:43:43;;;;;;;10.23;2.30;;;;;;;7.54;86.42;100272.59;5020527;28;20060;-83
2022/02/18 05:46:09;;;;;;;11.00;2.30;;;;;;;7.55;86.22;100276.03;5020060;28;20083;-83
2022/02/18 05:48:35;;;;;;;13.18;2.40;;;;;;;7.50;86.13;100264.03;5019856;28;20363;-83
2022/02/18 05:51:05;;;;;;;9.13;2.15;;;;;;;7.50;86.28;100248.41;5037471;28;20345;-83
2022/02/18 05:53:32;;;;;;;10.75;2.70;;;;;;;7.51;86.11;100238.81;5044428;28;20033;-83
2022/02/18 05:55:57;;;;;;;10.38;2.45;;;;;;;7.50;86.30;100224.97;5057975;28;20036;-83
2022/02/18 05:58:23;;;;;;;13.20;2.95;;;;;;;7.50;86.40;100211.94;5026909;28;20032;-83
2022/02/18 06:00:49;;;;;;;14.30;3.28;;;;;;;7.50;86.43;100196.28;5037724;28;20045;-83
2022/02/18 06:03:15;;;;;;;15.60;2.88;;;;;;;7.52;86.20;100190.19;5038227;28;20025;-83
2022/02/18 06:05:40;;;;;;;14.90;3.03;;;;;;;7.50;86.39;100178.06;5038120;28;20292;-83
2022/02/18 06:08:06;;;;;;;8.93;2.80;;;;;;;7.52;86.39;100159.75;5020057;28;20056;-83
2022/02/18 06:10:32;;;;;;;9.50;2.17;;;;;;;7.51;86.63;100142.41;5032899;28;20098;-83
2022/02/18 06:12:57;;;;;;;19.02;3.42;;;;;;;7.54;86.43;100151.88;5048105;28;20096;-83
2022/02/18 06:15:23;;;;;;;8.88;2.47;;;;;;;7.53;86.61;100148.44;5020344;28;20152;-83
2022/02/18 06:17:48;;;;;;;11.55;2.42;;;;;;;7.53;86.87;100150.19;5003727;28;20045;-84
2022/02/18 06:20:14;;;;;;;13.75;2.95;;;;;;;7.53;86.76;100127.59;5020027;28;20033;-84
2022/02/18 06:22:39;;;;;;;8.35;2.65;;;;;;;7.50;86.89;100110.31;5036029;28;20041;-84
2022/02/18 06:25:07;;;;;;;8.25;2.40;;;;;;;7.49;86.92;100103.44;5019713;28;20091;-84
2022/02/18 06:27:33;;;;;;;6.47;2.03;;;;;;;7.50;87.09;100096.44;5037429;28;20029;-84
2022/02/18 06:29:58;;;;;;;8.10;2.20;;;;;;;7.50;87.05;100083.41;5019708;28;20037;-84
2022/02/18 06:32:24;;;;;;;11.60;2.70;;;;;;;7.52;87.13;100071.19;5019713;28;20040;-83
2022/02/18 06:34:50;;;;;;;14.23;3.97;;;;;;;7.49;87.42;100064.34;5019763;28;20357;-84
2022/02/18 06:37:15;;;;;;;9.68;3.05;;;;;;;7.47;88.33;100058.31;5037539;28;20055;-83
2022/02/18 06:39:41;;;;;;;12.52;3.38;;;;;;;7.47;88.44;100054.88;5019023;28;20293;-83
2022/02/18 06:42:07;;;;;;;14.30;4.50;;;;;;;7.47;88.25;100045.28;5019479;28;20080;-83
2022/02/18 06:44:33;;;;;;;17.65;4.95;;;;;;;7.46;88.71;100042.78;5037447;28;20037;-84
2022/02/18 06:46:58;;;;;;;12.98;3.40;;;;;;;7.48;88.64;100033.13;5037193;28;20405;-84
2022/02/18 06:49:24;;;;;;;12.25;3.42;;;;;;;7.48;88.60;100028.75;5037284;28;20076;-84
2022/02/18 06:51:55;;;;;;;8.25;3.63;;;;;;;7.49;88.54;100040.03;5036847;28;20345;-84
2022/02/18 06:54:22;;;;;;;10.68;3.13;;;;;;;7.50;88.60;100036.53;5018791;28;20044;-84
2022/02/18 06:56:47;;;;;;;12.25;3.92;;;;;;;7.50;88.31;100024.34;5019562;28;20030;-84
2022/02/18 06:59:13;;;;;;;12.70;3.50;;;;;;;7.50;88.61;100008.69;5017433;28;20039;-84
2022/02/18 07:01:38;;;;;;;10.75;3.50;;;;;;;7.52;88.72;100002.59;5021108;28;20044;-84
2022/02/18 07:04:03;;;;;;;11.70;3.80;;;;;;;7.52;88.96;100010.41;5003507;28;20105;-84
2022/02/18 07:06:29;;;;;;;11.30;3.78;;;;;;;7.52;89.30;99993.00;5028536;28;20042;-84
2022/02/18 07:08:54;;;;;;;15.23;4.13;;;;;;;7.51;89.36;99988.69;5019365;28;20315;-84
2022/02/18 07:11:21;;;;;;;16.52;5.30;;;;;;;7.49;90.19;99986.19;5037787;28;20096;-84
2022/02/18 07:13:47;;;;;;;12.57;4.68;;;;;;;7.51;90.36;99978.28;5036761;28;20056;-84
2022/02/18 07:16:13;;;;;;;11.55;4.28;;;;;;;7.51;90.19;99954.81;5002769;28;20053;-84
2022/02/18 07:18:39;;;;;;;10.68;4.13;;;;;;;7.53;90.30;99950.41;5019366;28;20053;-84
2022/02/18 07:21:05;;;;;;;6.57;3.35;;;;;;;7.54;90.10;99946.06;5018584;28;20069;-84
2022/02/18 07:23:30;;;;;;;15.68;4.28;;;;;;;7.55;90.65;99942.50;5019494;28;20041;-84
2022/02/18 07:25:56;;;;;;;7.38;3.60;;;;;;;7.54;90.58;99927.81;5018933;28;20051;-84
2022/02/18 07:28:21;;;;;;;7.45;3.50;;;;;;;7.55;90.54;99914.72;5036079;28;20224;-84
2022/02/18 07:30:47;;;;;;;15.10;3.95;;;;;;;7.56;90.59;99908.59;5018910;28;20101;-84
2022/02/18 07:33:12;;;;;;;7.53;3.50;;;;;;;7.58;90.44;99898.09;5015147;28;20029;-84
2022/02/18 07:35:38;;;;;;;7.57;3.55;;;;;;;7.59;90.64;99894.59;5036131;28;20053;-84
2022/02/18 07:38:04;;;;;;;13.25;4.47;;;;;;;7.60;90.85;99897.09;5017433;28;20497;-84
2022/02/18 07:40:30;;;;;;;9.63;3.97;;;;;;;7.61;90.82;99890.16;5018185;28;20041;-84
2022/02/18 07:42:56;;;;;;;7.32;3.45;;;;;;;7.63;91.14;99886.56;5018370;28;20065;-84
2022/02/18 07:45:21;;;;;;;8.20;3.42;;;;;;;7.64;91.38;99876.97;5002078;28;20091;-84
2022/02/18 07:47:57;;;;;;;9.30;3.80;;;;;;;7.65;91.80;99876.06;5003079;28;20360;-84
2022/02/18 07:50:24;;;;;;;16.52;5.72;;;;;;;7.68;92.96;99875.94;5036516;28;20290;-84
2022/02/18 07:52:50;;;;;;;13.57;4.80;;;;;;;7.67;93.40;99859.44;5019458;28;20100;-84
2022/02/18 07:55:16;;;;;;;17.33;5.22;;;;;;;7.69;93.48;99854.16;5037429;28;20056;-84
2022/02/18 07:57:41;;;;;;;11.27;4.47;;;;;;;7.72;93.59;99855.81;5033205;28;20068;-84
2022/02/18 08:00:08;;;;;;;16.00;5.95;;;;;;;7.74;94.65;99844.38;4983433;28;20318;-84
2022/02/18 08:02:34;;;;;;;13.05;4.70;;;;;;;7.74;94.70;99820.09;5046051;28;20044;-84
2022/02/18 08:04:59;;;;;;;16.77;4.93;;;;;;;7.76;94.85;99815.66;5027622;28;20036;-84
2022/02/18 08:07:24;;;;;;;12.32;5.05;;;;;;;7.78;94.49;99824.25;5034741;28;20034;-84
2022/02/18 08:09:50;;;;;;;13.43;5.00;;;;;;;7.81;95.07;99822.34;5019678;28;20341;-84
2022/02/18 08:12:15;;;;;;;20.95;6.65;;;;;;;7.83;95.30;99815.28;5037870;28;20390;-84
2022/02/18 08:14:41;;;;;;;16.15;5.32;;;;;;;7.85;95.80;99810.84;5036467;28;20152;-83
2022/02/18 08:17:07;;;;;;;13.85;4.82;;;;;;;7.87;95.62;99809.03;5019841;28;20037;-83
2022/02/18 08:19:32;;;;;;;10.80;4.68;;;;;;;7.91;95.73;99791.47;5020003;28;20126;-83
2022/02/18 08:21:57;;;;;;;12.73;5.38;;;;;;;7.93;96.12;99788.81;5037102;28;20034;-84
2022/02/18 08:24:23;;;;;;;16.17;5.93;;;;;;;7.96;96.27;99780.84;5031518;28;20045;-84
2022/02/18 08:26:50;;;;;;;10.18;5.20;;;;;;;7.97;96.91;99766.91;5034150;28;20049;-84
2022/02/18 08:29:17;;;;;;;13.10;4.38;;;;;;;8.00;96.95;99758.91;5016496;28;20045;-83
2022/02/18 08:31:43;;;;;;;13.25;5.00;;;;;;;8.01;96.74;99769.28;5035319;28;20036;-84
2022/02/18 08:34:08;;;;;;;9.25;5.18;;;;;;;8.02;96.83;99771.00;5030685;28;20452;-84
2022/02/18 08:36:35;;;;;;;8.27;4.53;;;;;;;8.06;97.05;99762.09;5035650;28;20033;-83
2022/02/18 08:39:03;;;;;;;12.55;4.78;;;;;;;8.08;97.27;99739.41;5042325;28;20041;-83
2022/02/18 08:41:30;;;;;;;12.30;4.53;;;;;;;8.10;97.36;99739.31;5036624;28;20075;-84
2022/02/18 08:43:58;;;;;;;13.77;5.13;;;;;;;8.11;97.57;99727.97;5022709;28;20041;-84
2022/02/18 08:46:28;;;;;;;15.18;4.35;;;;;;;8.13;97.71;99713.09;5030636;28;20226;-84
2022/02/18 08:48:54;;;;;;;13.18;4.45;;;;;;;8.16;97.44;99714.72;5017352;28;20260;-84
2022/02/18 08:51:20;;;;;;;14.05;4.32;;;;;;;8.18;97.46;99700.66;5035987;28;20387;-84
2022/02/18 08:53:45;;;;;;;11.40;4.35;;;;;;;8.21;97.45;99700.53;5034496;28;20064;-83
2022/02/18 08:56:11;;;;;;;7.00;3.38;;;;;;;8.25;97.61;99693.41;5035046;28;20037;-83
2022/02/18 08:58:37;;;;;;;11.10;4.10;;;;;;;8.27;97.34;99691.56;5034637;28;20052;-84
2022/02/18 09:01:03;;;;;;;9.30;4.10;;;;;;;8.29;97.23;99674.06;5017598;28;20049;-84
2022/02/18 09:03:29;;;;;;;9.43;3.88;;;;;;;8.31;97.13;99663.56;5021734;28;20042;-84
2022/02/18 09:05:55;;;;;;;12.82;4.00;;;;;;;8.33;97.30;99666.91;5025751;28;20095;-84
2022/02/18 09:08:21;;;;;;;9.68;3.53;;;;;;;8.35;97.25;99658.13;5040792;28;20359;-84
2022/02/18 09:10:49;;;;;;;7.35;4.15;;;;;;;8.38;97.64;99654.50;5026046;28;20061;-84
2022/02/18 09:13:15;;;;;;;7.85;3.42;;;;;;;8.41;97.29;99649.13;5043843;28;20096;-83
2022/02/18 09:15:40;;;;;;;6.93;3.83;;;;;;;8.44;97.43;99652.47;5019516;28;20052;-83
2022/02/18 09:18:06;;;;;;;6.70;3.05;;;;;;;8.45;97.42;99633.25;5045293;28;20359;-83
2022/02/18 09:20:33;;;;;;;7.05;2.92;;;;;;;8.50;97.51;99619.16;5037250;28;20045;-83
2022/02/18 09:22:59;;;;;;;7.28;2.97;;;;;;;8.54;97.40;99611.06;5020463;28;20041;-83
2022/02/18 09:25:24;;;;;;;5.55;2.42;;;;;;;8.58;97.47;99596.94;5021227;28;20258;-83
2022/02/18 09:27:49;;;;;;;8.60;2.75;;;;;;;8.62;97.74;99608.06;5024301;28;20352;-84
2022/02/18 09:30:15;;;;;;;8.60;3.65;;;;;;;8.64;97.79;99598.38;5039607;28;20032;-84
2022/02/18 09:32:41;;;;;;;6.45;2.60;;;;;;;8.67;97.65;99589.56;5038289;28;20033;-83
2022/02/18 09:35:06;;;;;;;9.15;2.67;;;;;;;8.69;97.67;99578.09;5034387;28;20041;-84
2022/02/18 09:37:32;;;;;;;3.17;2.20;;;;;;;8.71;97.51;99575.41;5037387;28;20049;-84
2022/02/18 09:39:57;;;;;;;7.13;2.55;;;;;;;8.75;97.55;99558.66;5017878;28;20056;-84
2022/02/18 09:42:23;;;;;;;6.22;2.53;;;;;;;8.79;97.51;99554.97;5028677;28;20124;-84
2022/02/18 09:44:50;;;;;;;4.18;2.05;;;;;;;8.82;97.57;99565.25;5038291;28;20108;-84
2022/02/18 09:47:15;;;;;;;8.18;2.63;;;;;;;8.84;97.72;99561.63;5041013;28;20047;-83
2022/02/18 09:49:42;;;;;;;6.00;1.98;;;;;;;8.88;97.45;99564.06;5016443;28;20045;-83
2022/02/18 09:52:08;;;;;;;4.25;2.08;;;;;;;8.94;97.89;99543.69;5017387;28;20029;-83
2022/02/18 09:54:34;;;;;;;5.38;2.00;;;;;;;8.94;98.07;99532.41;5032407;28;20045;-84
2022/02/18 09:57:00;;;;;;;6.10;2.60;;;;;;;8.98;97.94;99526.09;5017484;28;20128;-84
2022/02/18 09:59:27;;;;;;;5.85;2.17;;;;;;;8.98;98.07;99516.47;5035380;28;20045;-84
2022/02/18 10:01:53;;;;;;;3.92;2.20;;;;;;;9.02;98.53;99512.78;5033544;28;20475;-84
2022/02/18 10:04:18;;;;;;;6.13;2.72;;;;;;;9.05;98.68;99501.31;5035848;28;20308;-84
2022/02/18 10:06:44;;;;;;;2.85;2.45;;;;;;;9.08;98.49;99497.69;5017556;28;20045;-84
2022/02/18 10:09:09;;;;;;;7.07;2.10;;;;;;;9.09;98.53;99492.38;5034640;28;20037;-84
2022/02/18 10:11:59;;;;;;;5.40;2.40;;;;;;;9.09;98.65;99502.00;5034642;28;20017;-84
2022/02/18 10:14:25;;;;;;;4.07;2.05;;;;;;;9.11;98.55;99498.34;5032171;28;20037;-84
2022/02/18 10:16:50;;;;;;;7.30;1.83;;;;;;;9.13;98.89;99490.44;5029651;28;20156;-83
2022/02/18 10:19:16;;;;;;;3.55;1.60;;;;;;;9.14;98.50;99500.81;5017383;28;20037;-83
2022/02/18 10:21:44;;;;;;;3.72;1.60;;;;;;;9.17;98.55;99476.31;5036113;28;20233;-84
2022/02/18 10:24:14;;;;;;;5.70;1.83;;;;;;;9.20;98.78;99469.13;5021868;28;20105;-84
2022/02/18 10:26:51;;;;;;;3.58;1.67;;;;;;;9.20;98.56;99492.66;5016645;28;20041;-83
2022/02/18 10:29:19;;;;;;;2.85;1.60;;;;;;;9.23;98.73;99461.09;5035245;28;20033;-83
2022/02/18 10:32:12;;;;;;;2.22;1.70;;;;;;;9.24;98.50;99459.34;5034614;28;20055;-84
2022/02/18 10:34:58;;;;;;;4.30;1.60;;;;;;;9.28;98.11;99437.34;5008459;28;20236;-84
2022/02/18 10:37:25;;;;;;;1.33;1.23;;;;;;;9.30;98.16;99437.25;5032794;28;20033;-84
2022/02/18 10:40:17;;;;;;;1.20;1.10;;;;;;;9.33;98.24;99429.22;5032815;28;20033;-84
2022/02/18 10:42:44;;;;;;;2.20;1.13;;;;;;;9.36;98.36;99416.81;5028810;28;20033;-83
2022/02/18 10:45:12;;;;;;;2.20;1.50;;;;;;;9.38;98.47;99412.34;5034017;28;20108;-83
2022/02/18 10:47:39;;;;;;;1.77;1.25;;;;;;;9.41;98.58;99385.22;5025730;28;20061;-84
2022/02/18 10:50:23;;;;;;;1.80;1.40;;;;;;;9.44;98.79;99392.03;5033321;28;20037;-83
2022/02/18 10:53:07;;;;;;;1.30;1.20;;;;;;;9.48;98.65;99390.91;5035327;28;20063;-84
2022/02/18 10:55:46;;;;;;;2.45;0.98;;;;;;;9.50;98.63;99370.78;5034551;28;20060;-84
2022/02/18 10:58:11;;;;;;;1.98;1.20;;;;;;;9.52;98.65;99380.19;5032975;28;20326;-83
2022/02/18 11:00:37;;;;;;;1.52;1.30;;;;;;;9.54;98.37;99380.09;5035195;28;20034;-83
2022/02/18 11:03:03;;;;;;;2.00;1.20;;;;;;;9.56;98.33;99355.53;5034515;28;20046;-83
2022/02/18 11:05:30;;;;;;;1.42;1.13;;;;;;;9.56;98.62;99339.03;5035940;28;20033;-83
2022/02/18 11:07:56;;;;;;;1.17;1.13;;;;;;;9.59;98.32;99338.84;5031155;28;20049;-83
2022/02/18 11:10:36;;;;;;;1.77;1.00;;;;;;;9.61;98.39;99347.44;5033133;28;20057;-83
2022/02/18 11:13:02;;;;;;;2.28;1.10;;;;;;;9.64;98.40;99349.88;5034086;28;20240;-84
2022/02/18 11:15:28;;;;;;;2.45;1.63;;;;;;;9.67;98.54;99335.75;5034875;28;20051;-83
2022/02/18 11:17:55;;;;;;;1.05;1.05;;;;;;;9.69;98.83;99320.81;5016538;28;20107;-83
2022/02/18 11:20:23;;;;;;;1.35;1.10;;;;;;;9.68;99.08;99320.00;5033369;28;20029;-84
2022/02/18 11:22:51;;;;;;;1.27;0.80;;;;;;;9.69;98.94;99386.19;5018508;28;20050;-83
2022/02/18 11:25:18;;;;;;;4.38;1.52;;;;;;;9.71;99.13;99407.84;5038447;28;20248;-84
2022/02/18 11:27:44;;;;;;;4.18;1.42;;;;;;;9.64;95.66;99394.31;5032043;28;20046;-86